sensor_id;sensor_type;location;lat;lon;timestamp;pressure;altitude;pressure_sealevel;temperature;humidity
74913;BME280;63878;55.624;37.304;2024-02-21T00:01:52;99860.63;;;-10.93;68.66
74913;BME280;63878;55.624;37.304;2024-02-21T00:11:52;99845.50;;;-10.94;68.85
74913;BME280;63878;55.624;37.304;2024-02-21T00:21:52;99852.25;;;-10.66;68.28
74913;BME280;63878;55.624;37.304;2024-02-21T00:31:53;99837.91;;;-10.81;68.75
74913;BME280;63878;55.624;37.304;2024-02-21T00:41:53;99838.75;;;-10.85;68.63
74913;BME280;63878;55.624;37.304;2024-02-21T00:51:55;99824.44;;;-11.01;69.31
74913;BME280;63878;55.624;37.304;2024-02-21T01:01:55;99823.56;;;-10.94;69.41
74913;BME280;63878;55.624;37.304;2024-02-21T01:11:56;99819.41;;;-10.72;68.97
74913;BME280;63878;55.624;37.304;2024-02-21T01:21:56;99812.66;;;-10.75;69.00
74913;BME280;63878;55.624;37.304;2024-02-21T01:31:57;99797.47;;;-10.76;69.43
74913;BME280;63878;55.624;37.304;2024-02-21T01:41:57;99783.97;;;-10.60;68.66
74913;BME280;63878;55.624;37.304;2024-02-21T01:51:58;99772.97;;;-10.28;68.76
74913;BME280;63878;55.624;37.304;2024-02-21T02:01:59;99762.06;;;-10.48;69.17
74913;BME280;63878;55.624;37.304;2024-02-21T02:12:01;99749.34;;;-10.37;69.41
74913;BME280;63878;55.624;37.304;2024-02-21T02:22:14;99750.19;;;-10.31;69.00
74913;BME280;63878;55.624;37.304;2024-02-21T02:32:18;99752.66;;;-10.11;68.96
74913;BME280;63878;55.624;37.304;2024-02-21T02:42:18;99756.91;;;-10.28;69.57
74913;BME280;63878;55.624;37.304;2024-02-21T02:52:19;99763.66;;;-10.20;70.00
74913;BME280;63878;55.624;37.304;2024-02-21T03:02:19;99759.44;;;-10.19;70.04
74913;BME280;63878;55.624;37.304;2024-02-21T03:12:20;99749.25;;;-9.95;69.57
74913;BME280;63878;55.624;37.304;2024-02-21T03:22:20;99742.47;;;-9.89;70.26
74913;BME280;63878;55.624;37.304;2024-02-21T03:32:20;99739.81;;;-9.75;70.19
74913;BME280;63878;55.624;37.304;2024-02-21T03:42:21;99743.19;;;-9.72;70.53
74913;BME280;63878;55.624;37.304;2024-02-21T03:52:21;99743.19;;;-9.75;70.44
74913;BME280;63878;55.624;37.304;2024-02-21T04:02:21;99744.81;;;-9.62;70.64
74913;BME280;63878;55.624;37.304;2024-02-21T04:12:22;99744.00;;;-9.68;70.50
74913;BME280;63878;55.624;37.304;2024-02-21T04:22:22;99750.69;;;-9.55;70.70
74913;BME280;63878;55.624;37.304;2024-02-21T04:32:23;99750.66;;;-9.45;70.34
74913;BME280;63878;55.624;37.304;2024-02-21T04:42:24;99755.66;;;-9.36;70.06
74913;BME280;63878;55.624;37.304;2024-02-21T04:52:24;99762.44;;;-9.41;70.38
74913;BME280;63878;55.624;37.304;2024-02-21T05:02:25;99749.59;;;-9.17;70.21
74913;BME280;63878;55.624;37.304;2024-02-21T05:12:26;99746.25;;;-9.22;70.63
74913;BME280;63878;55.624;37.304;2024-02-21T05:22:26;99751.34;;;-9.22;70.43
74913;BME280;63878;55.624;37.304;2024-02-21T05:32:27;99751.13;;;-8.96;69.61
74913;BME280;63878;55.624;37.304;2024-02-21T05:42:27;99747.09;;;-9.21;70.56
74913;BME280;63878;55.624;37.304;2024-02-21T05:52:28;99745.25;;;-9.01;70.15
74913;BME280;63878;55.624;37.304;2024-02-21T06:02:29;99756.22;;;-8.98;70.32
74913;BME280;63878;55.624;37.304;2024-02-21T06:12:30;99756.06;;;-8.77;69.75
74913;BME280;63878;55.624;37.304;2024-02-21T06:22:30;99751.69;;;-8.60;70.00
74913;BME280;63878;55.624;37.304;2024-02-21T06:32:31;99758.50;;;-8.68;70.06
74913;BME280;63878;55.624;37.304;2024-02-21T06:42:31;99754.22;;;-8.61;70.07
74913;BME280;63878;55.624;37.304;2024-02-21T06:52:32;99754.31;;;-8.70;69.95
74913;BME280;63878;55.624;37.304;2024-02-21T07:02:32;99750.78;;;-8.54;69.91
74913;BME280;63878;55.624;37.304;2024-02-21T07:12:33;99741.25;;;-8.34;68.87
74913;BME280;63878;55.624;37.304;2024-02-21T07:22:33;99725.13;;;-8.29;68.75
74913;BME280;63878;55.624;37.304;2024-02-21T07:32:34;99731.56;;;-8.01;67.81
74913;BME280;63878;55.624;37.304;2024-02-21T07:42:36;99734.22;;;-8.08;67.99
74913;BME280;63878;55.624;37.304;2024-02-21T07:52:36;99724.63;;;-7.88;68.30
74913;BME280;63878;55.624;37.304;2024-02-21T08:02:37;99720.97;;;-7.68;66.99
74913;BME280;63878;55.624;37.304;2024-02-21T08:12:38;99722.31;;;-7.41;66.73
74913;BME280;63878;55.624;37.304;2024-02-21T08:22:39;99717.97;;;-7.33;65.71
74913;BME280;63878;55.624;37.304;2024-02-21T08:32:40;99729.97;;;-7.44;66.03
74913;BME280;63878;55.624;37.304;2024-02-21T08:42:40;99715.56;;;-7.42;65.71
74913;BME280;63878;55.624;37.304;2024-02-21T08:52:41;99717.09;;;-7.32;65.39
74913;BME280;63878;55.624;37.304;2024-02-21T09:02:42;99694.50;;;-6.96;64.53
74913;BME280;63878;55.624;37.304;2024-02-21T09:12:42;99695.41;;;-7.00;65.08
74913;BME280;63878;55.624;37.304;2024-02-21T09:22:43;99690.00;;;-6.82;64.36
74913;BME280;63878;55.624;37.304;2024-02-21T09:32:43;99682.59;;;-6.97;65.45
74913;BME280;63878;55.624;37.304;2024-02-21T09:42:47;99678.78;;;-6.72;64.46
74913;BME280;63878;55.624;37.304;2024-02-21T09:52:48;99673.38;;;-6.55;64.60
74913;BME280;63878;55.624;37.304;2024-02-21T10:02:50;99665.38;;;-6.36;63.61
74913;BME280;63878;55.624;37.304;2024-02-21T10:12:51;99671.41;;;-6.41;63.40
74913;BME280;63878;55.624;37.304;2024-02-21T10:23:05;99660.56;;;-6.49;63.53
74913;BME280;63878;55.624;37.304;2024-02-21T10:33:06;99658.81;;;-6.47;64.68
74913;BME280;63878;55.624;37.304;2024-02-21T10:43:12;99658.66;;;-6.40;64.37
74913;BME280;63878;55.624;37.304;2024-02-21T11:03:31;99652.63;;;-6.34;62.61
74913;BME280;63878;55.624;37.304;2024-02-21T11:13:36;99647.19;;;-6.18;63.04
74913;BME280;63878;55.624;37.304;2024-02-21T11:23:36;99637.91;;;-6.20;62.93
74913;BME280;63878;55.624;37.304;2024-02-21T11:33:39;99629.34;;;-6.18;62.48
74913;BME280;63878;55.624;37.304;2024-02-21T11:43:40;99628.25;;;-6.46;64.00
74913;BME280;63878;55.624;37.304;2024-02-21T11:53:40;99622.66;;;-6.23;64.19
74913;BME280;63878;55.624;37.304;2024-02-21T12:03:42;99609.09;;;-6.22;63.89
74913;BME280;63878;55.624;37.304;2024-02-21T12:13:43;99610.06;;;-6.29;63.68
74913;BME280;63878;55.624;37.304;2024-02-21T12:23:43;99605.34;;;-6.47;64.58
74913;BME280;63878;55.624;37.304;2024-02-21T12:33:44;99612.91;;;-6.43;64.05
74913;BME280;63878;55.624;37.304;2024-02-21T12:43:44;99599.31;;;-6.42;64.66
74913;BME280;63878;55.624;37.304;2024-02-21T12:53:44;99589.09;;;-6.40;64.95
74913;BME280;63878;55.624;37.304;2024-02-21T13:03:45;99598.66;;;-6.51;65.30
74913;BME280;63878;55.624;37.304;2024-02-21T13:13:46;99609.94;;;-6.66;66.29
74913;BME280;63878;55.624;37.304;2024-02-21T13:23:46;99606.34;;;-6.54;66.22
74913;BME280;63878;55.624;37.304;2024-02-21T13:33:47;99608.22;;;-6.62;65.97
74913;BME280;63878;55.624;37.304;2024-02-21T13:43:47;99608.09;;;-6.58;66.47
74913;BME280;63878;55.624;37.304;2024-02-21T13:53:47;99616.56;;;-6.56;66.26
74913;BME280;63878;55.624;37.304;2024-02-21T14:03:48;99613.41;;;-6.70;66.45
74913;BME280;63878;55.624;37.304;2024-02-21T14:13:49;99621.00;;;-6.67;67.18
74913;BME280;63878;55.624;37.304;2024-02-21T14:23:49;99603.06;;;-6.61;66.28
74913;BME280;63878;55.624;37.304;2024-02-21T14:33:50;99610.09;;;-6.72;66.68
74913;BME280;63878;55.624;37.304;2024-02-21T14:43:50;99608.25;;;-6.65;66.70
74913;BME280;63878;55.624;37.304;2024-02-21T14:53:51;99615.31;;;-6.79;66.48
74913;BME280;63878;55.624;37.304;2024-02-21T15:03:52;99616.91;;;-6.74;67.08
74913;BME280;63878;55.624;37.304;2024-02-21T15:13:52;99617.69;;;-6.70;66.43
74913;BME280;63878;55.624;37.304;2024-02-21T15:23:53;99617.53;;;-6.63;66.73
74913;BME280;63878;55.624;37.304;2024-02-21T15:33:53;99612.72;;;-6.76;67.29
74913;BME280;63878;55.624;37.304;2024-02-21T15:43:54;99614.72;;;-6.93;66.92
74913;BME280;63878;55.624;37.304;2024-02-21T15:53:54;99605.13;;;-6.79;66.55
74913;BME280;63878;55.624;37.304;2024-02-21T16:03:55;99601.84;;;-6.84;66.64
74913;BME280;63878;55.624;37.304;2024-02-21T16:13:57;99603.59;;;-6.88;67.01
74913;BME280;63878;55.624;37.304;2024-02-21T16:24:01;99594.44;;;-6.96;67.00
74913;BME280;63878;55.624;37.304;2024-02-21T16:34:03;99587.84;;;-7.06;67.10
74913;BME280;63878;55.624;37.304;2024-02-21T16:44:04;99579.47;;;-7.13;67.41
74913;BME280;63878;55.624;37.304;2024-02-21T16:54:04;99577.72;;;-7.09;67.83
74913;BME280;63878;55.624;37.304;2024-02-21T17:04:05;99576.22;;;-6.33;65.64
74913;BME280;63878;55.624;37.304;2024-02-21T17:14:06;99572.38;;;-6.14;65.49
74913;BME280;63878;55.624;37.304;2024-02-21T17:24:06;99576.00;;;-6.22;65.08
74913;BME280;63878;55.624;37.304;2024-02-21T17:34:07;99577.09;;;-6.34;66.92
74913;BME280;63878;55.624;37.304;2024-02-21T17:44:07;99552.72;;;-6.07;65.83
74913;BME280;63878;55.624;37.304;2024-02-21T17:54:08;99559.78;;;-6.18;65.43
74913;BME280;63878;55.624;37.304;2024-02-21T18:04:09;99546.16;;;-6.17;66.56
74913;BME280;63878;55.624;37.304;2024-02-21T18:14:10;99547.13;;;-6.23;67.31
74913;BME280;63878;55.624;37.304;2024-02-21T18:24:11;99547.84;;;-6.18;67.76
74913;BME280;63878;55.624;37.304;2024-02-21T18:34:11;99545.44;;;-6.24;67.39
74913;BME280;63878;55.624;37.304;2024-02-21T18:44:12;99533.69;;;-5.91;68.05
74913;BME280;63878;55.624;37.304;2024-02-21T18:54:13;99528.84;;;-5.67;68.05
74913;BME280;63878;55.624;37.304;2024-02-21T19:04:14;99524.19;;;-5.85;67.37
74913;BME280;63878;55.624;37.304;2024-02-21T19:14:15;99520.13;;;-5.93;66.92
74913;BME280;63878;55.624;37.304;2024-02-21T19:24:15;99524.75;;;-6.10;66.27
74913;BME280;63878;55.624;37.304;2024-02-21T19:34:16;99514.91;;;-6.25;66.94
74913;BME280;63878;55.624;37.304;2024-02-21T19:44:17;99497.03;;;-6.22;67.82
74913;BME280;63878;55.624;37.304;2024-02-21T19:54:17;99498.53;;;-6.14;67.34
74913;BME280;63878;55.624;37.304;2024-02-21T20:04:18;99501.47;;;-5.60;74.01
74913;BME280;63878;55.624;37.304;2024-02-21T20:14:19;99492.28;;;-5.66;69.38
74913;BME280;63878;55.624;37.304;2024-02-21T20:24:19;99492.34;;;-6.04;68.07
74913;BME280;63878;55.624;37.304;2024-02-21T20:34:20;99494.66;;;-6.69;70.47
74913;BME280;63878;55.624;37.304;2024-02-21T20:44:20;99484.31;;;-7.01;72.18
74913;BME280;63878;55.624;37.304;2024-02-21T20:54:21;99487.41;;;-6.87;72.07
74913;BME280;63878;55.624;37.304;2024-02-21T21:04:22;99475.56;;;-6.88;72.34
74913;BME280;63878;55.624;37.304;2024-02-21T21:14:22;99480.28;;;-7.11;72.99
74913;BME280;63878;55.624;37.304;2024-02-21T21:24:24;99465.03;;;-7.13;73.93
74913;BME280;63878;55.624;37.304;2024-02-21T21:34:27;99460.66;;;-7.06;74.05
74913;BME280;63878;55.624;37.304;2024-02-21T21:44:28;99463.09;;;-7.02;73.52
74913;BME280;63878;55.624;37.304;2024-02-21T21:54:29;99464.13;;;-7.09;73.56
74913;BME280;63878;55.624;37.304;2024-02-21T22:04:30;99463.41;;;-7.15;73.92
74913;BME280;63878;55.624;37.304;2024-02-21T22:14:30;99454.69;;;-7.04;74.52
74913;BME280;63878;55.624;37.304;2024-02-21T22:24:31;99448.78;;;-7.06;74.10
74913;BME280;63878;55.624;37.304;2024-02-21T22:34:32;99445.22;;;-6.97;73.68
74913;BME280;63878;55.624;37.304;2024-02-21T22:44:32;99439.44;;;-7.05;73.78
74913;BME280;63878;55.624;37.304;2024-02-21T22:54:33;99424.91;;;-6.99;74.09
74913;BME280;63878;55.624;37.304;2024-02-21T23:04:34;99421.56;;;-7.01;74.18
74913;BME280;63878;55.624;37.304;2024-02-21T23:14:35;99419.06;;;-7.02;74.07
74913;BME280;63878;55.624;37.304;2024-02-21T23:24:36;99419.56;;;-6.87;73.44
74913;BME280;63878;55.624;37.304;2024-02-21T23:34:37;99412.31;;;-7.05;74.24
74913;BME280;63878;55.624;37.304;2024-02-21T23:44:38;99404.06;;;-7.16;74.31
74913;BME280;63878;55.624;37.304;2024-02-21T23:54:38;99398.50;;;-6.93;74.25
